createdAt,value
2018-11-26T00:00:21.765Z,7.24
2018-11-26T00:02:50.471Z,7.17
2018-11-26T00:05:18.717Z,7.11
2018-11-26T00:07:47.131Z,7.14
2018-11-26T00:10:32.686Z,7.21
2018-11-26T00:13:01.082Z,7.22
2018-11-26T00:15:29.328Z,7.19
2018-11-26T00:17:57.530Z,7.24
2018-11-26T00:20:25.679Z,7.14
2018-11-26T00:22:53.996Z,7.11
2018-11-26T00:25:22.216Z,7.14
2018-11-26T00:27:50.533Z,7.10
2018-11-26T00:30:18.700Z,7.07
2018-11-26T00:32:47.004Z,7.15
2018-11-26T00:35:15.250Z,6.94
2018-11-26T00:37:43.574Z,7.08
2018-11-26T00:40:11.977Z,7.13
2018-11-26T00:42:40.736Z,6.98
2018-11-26T00:45:11.273Z,7.13
2018-11-26T00:47:39.645Z,7.15
2018-11-26T00:50:09.458Z,7.14
2018-11-26T00:52:38.984Z,7.16
2018-11-26T00:55:09.253Z,7.15
2018-11-26T00:57:37.630Z,7.22
2018-11-26T01:00:10.529Z,7.17
2018-11-26T01:02:38.933Z,7.22
2018-11-26T01:05:07.591Z,7.12
2018-11-26T01:07:35.898Z,7.16
2018-11-26T01:10:04.153Z,7.12
2018-11-26T01:12:32.459Z,7.19
2018-11-26T01:15:00.804Z,7.21
2018-11-26T01:17:29.135Z,7.13
2018-11-26T01:19:57.306Z,7.21
2018-11-26T01:22:25.487Z,7.02
2018-11-26T01:24:53.803Z,7.00
2018-11-26T01:27:22.035Z,7.02
2018-11-26T01:29:50.359Z,7.11
2018-11-26T01:32:18.554Z,7.09
2018-11-26T01:34:46.940Z,7.09
2018-11-26T01:37:15.149Z,7.04
2018-11-26T01:39:44.362Z,7.12
2018-11-26T01:42:12.573Z,7.04
2018-11-26T01:44:40.917Z,6.94
2018-11-26T01:47:09.110Z,7.13
2018-11-26T01:49:37.254Z,7.02
2018-11-26T01:52:05.689Z,6.98
2018-11-26T01:54:33.867Z,6.96
2018-11-26T01:57:02.022Z,6.94
2018-11-26T01:59:30.209Z,6.92
2018-11-26T02:01:58.564Z,7.00
2018-11-26T02:04:27.256Z,7.05
2018-11-26T02:06:56.042Z,6.94
2018-11-26T02:09:24.461Z,7.03
2018-11-26T02:11:52.606Z,7.04
2018-11-26T02:14:20.953Z,6.95
2018-11-26T02:16:49.144Z,7.05
2018-11-26T02:19:18.086Z,7.03
2018-11-26T02:21:46.582Z,6.79
2018-11-26T02:24:14.776Z,6.80
2018-11-26T02:26:43.010Z,6.79
2018-11-26T02:29:11.342Z,6.76
2018-11-26T02:31:39.560Z,6.85
2018-11-26T02:34:07.800Z,6.75
2018-11-26T02:36:36.098Z,6.59
2018-11-26T02:39:06.058Z,6.66
2018-11-26T02:41:34.246Z,6.68
2018-11-26T02:44:02.422Z,6.79
2018-11-26T02:46:30.713Z,6.70
2018-11-26T02:48:58.892Z,6.82
2018-11-26T02:51:27.224Z,6.74
2018-11-26T02:53:55.442Z,6.73
2018-11-26T02:56:23.831Z,6.70
2018-11-26T02:58:52.057Z,6.66
2018-11-26T03:01:20.441Z,6.63
2018-11-26T03:03:48.594Z,6.63
2018-11-26T03:06:16.783Z,6.58
2018-11-26T03:08:44.919Z,6.65
2018-11-26T03:11:13.174Z,6.63
2018-11-26T03:13:41.329Z,6.56
2018-11-26T03:16:09.768Z,6.65
2018-11-26T03:18:37.986Z,6.57
2018-11-26T03:21:06.339Z,6.58
2018-11-26T03:23:35.196Z,6.46
2018-11-26T03:26:03.555Z,6.44
2018-11-26T03:28:31.765Z,6.52
2018-11-26T03:30:59.898Z,6.59
2018-11-26T03:33:28.099Z,6.38
2018-11-26T03:35:56.435Z,6.44
2018-11-26T03:38:57.414Z,6.39
2018-11-26T03:41:25.960Z,6.47
2018-11-26T03:43:54.131Z,6.53
2018-11-26T03:46:22.525Z,6.45
2018-11-26T03:48:50.715Z,6.41
2018-11-26T03:51:18.913Z,6.65
2018-11-26T03:53:47.069Z,6.51
2018-11-26T03:56:15.244Z,6.48
2018-11-26T03:58:43.616Z,6.49
2018-11-26T04:01:11.810Z,6.29
2018-11-26T04:03:39.985Z,6.34
2018-11-26T04:06:08.332Z,6.28
2018-11-26T04:08:36.467Z,6.40
2018-11-26T04:11:05.558Z,6.31
2018-11-26T04:13:33.729Z,6.23
2018-11-26T04:16:02.082Z,6.31
2018-11-26T04:18:30.238Z,6.33
2018-11-26T04:20:58.618Z,6.35
2018-11-26T04:23:26.763Z,6.41
2018-11-26T04:25:55.086Z,6.41
2018-11-26T04:28:23.238Z,6.45
2018-11-26T04:30:51.665Z,6.45
2018-11-26T04:33:20.652Z,6.41
2018-11-26T04:35:49.112Z,6.31
2018-11-26T04:38:17.419Z,6.29
2018-11-26T04:40:45.748Z,6.34
2018-11-26T04:43:13.875Z,6.33
2018-11-26T04:45:42.221Z,6.31
2018-11-26T04:48:10.380Z,6.30
2018-11-26T04:50:38.735Z,6.23
2018-11-26T04:53:07.071Z,6.23
2018-11-26T04:55:35.232Z,6.23
2018-11-26T04:58:03.459Z,6.22
2018-11-26T05:00:31.643Z,6.08
2018-11-26T05:03:01.047Z,6.12
2018-11-26T05:05:29.397Z,6.10
2018-11-26T05:07:57.591Z,6.13
2018-11-26T05:10:25.992Z,6.11
2018-11-26T05:12:54.343Z,5.98
2018-11-26T05:15:22.560Z,5.93
2018-11-26T05:17:50.734Z,5.94
2018-11-26T05:20:18.961Z,5.92
2018-11-26T05:22:47.127Z,6.05
2018-11-26T05:25:15.351Z,5.89
2018-11-26T05:27:44.302Z,5.96
2018-11-26T05:30:13.319Z,5.93
2018-11-26T05:32:41.728Z,6.01
2018-11-26T05:35:11.389Z,5.85
2018-11-26T05:37:39.589Z,5.88
2018-11-26T05:40:15.549Z,5.78
2018-11-26T05:42:44.059Z,5.81
2018-11-26T05:45:15.985Z,5.79
2018-11-26T05:47:44.141Z,5.60
2018-11-26T05:50:13.617Z,5.80
2018-11-26T05:52:41.747Z,5.71
2018-11-26T05:55:14.573Z,5.75
2018-11-26T05:57:43.259Z,5.78
2018-11-26T06:00:26.595Z,5.74
2018-11-26T06:02:55.909Z,5.67
2018-11-26T06:05:24.125Z,5.71
2018-11-26T06:07:52.283Z,5.72
2018-11-26T06:10:20.476Z,5.75
2018-11-26T06:12:48.656Z,5.67
2018-11-26T06:15:16.814Z,5.66
2018-11-26T06:17:45.147Z,5.84
2018-11-26T06:20:13.678Z,5.87
2018-11-26T06:22:43.803Z,5.71
2018-11-26T06:25:14.946Z,5.75
2018-11-26T06:27:43.728Z,5.74
2018-11-26T06:30:14.661Z,5.85
2018-11-26T06:32:43.362Z,5.82
2018-11-26T06:35:20.268Z,5.79
2018-11-26T06:37:48.834Z,5.86
2018-11-26T06:40:17.145Z,5.86
2018-11-26T06:42:46.006Z,5.96
2018-11-26T06:45:20.973Z,5.86
2018-11-26T06:47:49.408Z,5.77
2018-11-26T06:50:19.046Z,5.80
2018-11-26T06:52:47.330Z,5.85
2018-11-26T06:55:17.333Z,5.92
2018-11-26T06:57:45.511Z,5.94
2018-11-26T07:00:16.247Z,5.98
2018-11-26T07:02:44.582Z,5.98
2018-11-26T07:05:14.695Z,6.04
2018-11-26T07:07:42.977Z,6.06
2018-11-26T07:10:12.296Z,6.13
2018-11-26T07:12:40.610Z,6.03
2018-11-26T07:15:13.683Z,6.05
2018-11-26T07:17:42.047Z,6.02
2018-11-26T07:20:12.835Z,6.02
2018-11-26T07:22:41.324Z,5.97
2018-11-26T07:25:12.015Z,5.98
2018-11-26T07:27:41.101Z,5.95
2018-11-26T07:30:27.650Z,5.81
2018-11-26T07:32:55.871Z,5.96
2018-11-26T07:35:24.254Z,5.93
2018-11-26T07:37:52.471Z,6.08
2018-11-26T07:40:22.149Z,6.02
2018-11-26T07:43:03.781Z,6.01
2018-11-26T07:45:31.947Z,6.07
2018-11-26T07:48:00.309Z,5.94
2018-11-26T07:50:28.643Z,6.01
2018-11-26T07:52:57.009Z,5.90
2018-11-26T07:55:25.363Z,5.98
2018-11-26T07:57:53.549Z,5.94
2018-11-26T08:00:22.199Z,5.99
2018-11-26T08:02:50.721Z,5.80
2018-11-26T08:05:20.567Z,5.66
2018-11-26T08:07:48.767Z,5.60
2018-11-26T08:10:18.552Z,5.50
2018-11-26T08:12:48.107Z,5.43
2018-11-26T08:15:22.664Z,5.54
2018-11-26T08:17:50.823Z,5.44
2018-11-26T08:20:19.196Z,5.38
2018-11-26T08:22:47.403Z,5.25
2018-11-26T08:25:17.572Z,5.36
2018-11-26T08:27:46.826Z,5.46
2018-11-26T08:30:19.546Z,5.34
2018-11-26T08:32:50.364Z,5.22
2018-11-26T08:35:18.553Z,5.15
2018-11-26T08:37:52.460Z,5.10
2018-11-26T08:40:25.604Z,5.01
2018-11-26T08:43:58.545Z,5.11
2018-11-26T08:46:36.212Z,5.06
2018-11-26T08:49:11.258Z,4.98
2018-11-26T08:51:39.786Z,5.13
2018-11-26T08:54:08.024Z,5.19
2018-11-26T08:56:36.190Z,5.13
2018-11-26T08:59:04.636Z,5.15
2018-11-26T09:01:33.511Z,5.13
2018-11-26T09:04:08.678Z,5.32
2018-11-26T09:06:37.149Z,5.31
2018-11-26T09:09:09.228Z,5.20
2018-11-26T09:11:37.481Z,5.40
2018-11-26T09:14:06.429Z,5.41
2018-11-26T09:16:35.161Z,5.36
2018-11-26T09:19:03.367Z,5.41
2018-11-26T09:21:31.569Z,5.56
2018-11-26T09:23:59.756Z,5.44
2018-11-26T09:26:27.977Z,5.46
2018-11-26T09:28:56.195Z,5.44
2018-11-26T09:31:24.323Z,5.46
2018-11-26T09:33:52.451Z,5.44
2018-11-26T09:36:20.661Z,5.50
2018-11-26T09:38:48.939Z,5.54
2018-11-26T09:41:17.202Z,5.51
2018-11-26T09:43:45.369Z,5.68
2018-11-26T09:46:13.553Z,5.86
2018-11-26T09:48:41.697Z,5.60
2018-11-26T09:51:14.096Z,5.55
2018-11-26T09:53:38.097Z,5.62
2018-11-26T09:56:06.342Z,5.75
2018-11-26T09:58:34.529Z,5.66
2018-11-26T10:01:02.759Z,5.62
2018-11-26T10:03:30.974Z,5.68
2018-11-26T10:05:59.201Z,5.76
2018-11-26T10:08:27.331Z,5.81
2018-11-26T10:10:55.531Z,5.89
2018-11-26T10:13:23.774Z,5.87
2018-11-26T10:15:51.955Z,6.04
2018-11-26T10:18:20.111Z,6.05
2018-11-26T10:20:48.291Z,5.97
2018-11-26T10:23:16.483Z,6.08
2018-11-26T10:25:44.676Z,6.16
2018-11-26T10:28:12.861Z,6.16
2018-11-26T10:30:41.023Z,6.18
2018-11-26T10:33:14.691Z,6.16
2018-11-26T10:35:37.428Z,6.23
2018-11-26T10:38:06.888Z,6.36
2018-11-26T10:40:35.044Z,6.45
2018-11-26T10:43:03.310Z,6.44
2018-11-26T10:45:31.462Z,6.29
2018-11-26T10:47:59.660Z,6.39
2018-11-26T10:50:27.809Z,6.46
2018-11-26T10:52:58.368Z,6.48
2018-11-26T10:55:33.083Z,6.45
2018-11-26T10:58:01.465Z,6.47
2018-11-26T11:00:35.647Z,6.43
2018-11-26T11:03:04.043Z,6.25
2018-11-26T11:05:32.341Z,6.33
2018-11-26T11:08:07.152Z,6.29
2018-11-26T11:10:35.324Z,6.16
2018-11-26T11:13:03.820Z,6.37
2018-11-26T11:15:32.033Z,6.41
2018-11-26T11:18:00.288Z,6.35
2018-11-26T11:20:29.081Z,6.30
2018-11-26T11:22:57.282Z,6.20
2018-11-26T11:25:25.559Z,6.22
2018-11-26T11:27:53.750Z,6.13
2018-11-26T11:30:23.962Z,6.01
2018-11-26T11:32:53.206Z,6.04
2018-11-26T11:35:21.443Z,5.89
2018-11-26T11:37:50.525Z,5.82
2018-11-26T11:40:21.196Z,5.75
2018-11-26T11:42:49.908Z,5.66
2018-11-26T11:45:18.428Z,5.62
2018-11-26T11:47:46.653Z,5.50
2018-11-26T11:50:16.698Z,5.55
2018-11-26T11:52:45.140Z,5.51
2018-11-26T11:55:15.714Z,5.61
2018-11-26T11:57:44.062Z,5.72
2018-11-26T12:00:20.769Z,5.67
2018-11-26T12:02:48.940Z,5.68
2018-11-26T12:05:17.200Z,5.67
2018-11-26T12:07:45.394Z,5.78
2018-11-26T12:10:13.638Z,5.71
2018-11-26T12:12:41.839Z,5.67
2018-11-26T12:15:12.036Z,5.71
2018-11-26T12:17:40.816Z,5.65
2018-11-26T12:20:10.912Z,5.60
2018-11-26T12:22:40.196Z,5.54
2018-11-26T12:25:11.293Z,5.61
2018-11-26T12:27:39.513Z,5.54
2018-11-26T12:30:16.012Z,5.47
2018-11-26T12:32:44.150Z,5.46
2018-11-26T12:35:12.332Z,5.56
2018-11-26T12:37:40.536Z,5.65
2018-11-26T12:40:13.623Z,5.72
2018-11-26T12:42:41.832Z,5.63
2018-11-26T12:45:33.801Z,5.52
2018-11-26T12:48:02.174Z,5.54
2018-11-26T12:50:30.463Z,5.59
2018-11-26T12:52:58.617Z,5.59
2018-11-26T12:55:26.801Z,5.58
2018-11-26T12:57:55.920Z,5.70
2018-11-26T13:00:26.670Z,5.63
2018-11-26T13:03:02.111Z,5.65
2018-11-26T13:05:30.322Z,5.67
2018-11-26T13:07:58.490Z,5.68
2018-11-26T13:10:26.671Z,5.71
2018-11-26T13:12:54.955Z,5.65
2018-11-26T13:15:25.081Z,5.70
2018-11-26T13:17:53.277Z,5.74
2018-11-26T13:20:25.671Z,5.76
2018-11-26T13:22:54.370Z,5.75
2018-11-26T13:25:25.373Z,5.71
2018-11-26T13:27:55.225Z,5.78
2018-11-26T13:30:27.209Z,5.87
2018-11-26T13:32:59.982Z,5.97
2018-11-26T13:35:28.220Z,6.09
2018-11-26T13:37:56.465Z,6.15
2018-11-26T13:40:24.666Z,6.08
2018-11-26T13:42:52.882Z,6.11
2018-11-26T13:45:29.592Z,6.10
2018-11-26T13:47:57.841Z,6.09
2018-11-26T13:50:29.896Z,6.16
2018-11-26T13:52:58.203Z,6.26
2018-11-26T13:55:26.438Z,6.18
2018-11-26T13:57:54.613Z,6.21
2018-11-26T14:00:22.800Z,6.13
2018-11-26T14:02:51.007Z,6.03
2018-11-26T14:05:19.551Z,6.05
2018-11-26T14:07:48.043Z,5.98
2018-11-26T14:10:21.526Z,5.93
2018-11-26T14:13:23.272Z,5.94
2018-11-26T14:15:51.611Z,5.83
2018-11-26T14:18:19.800Z,5.65
2018-11-26T14:20:48.023Z,5.69
2018-11-26T14:23:16.197Z,5.85
2018-11-26T14:25:44.441Z,5.82
2018-11-26T14:28:12.672Z,5.88
2018-11-26T14:30:40.950Z,5.82
2018-11-26T14:33:09.462Z,5.91
2018-11-26T14:35:37.621Z,5.91
2018-11-26T14:38:08.495Z,5.89
2018-11-26T14:40:42.962Z,5.84
2018-11-26T14:43:11.181Z,5.81
2018-11-26T14:45:39.442Z,5.83
2018-11-26T14:48:07.653Z,5.75
2018-11-26T14:50:35.880Z,5.67
2018-11-26T14:53:05.148Z,5.70
2018-11-26T14:55:35.729Z,5.76
2018-11-26T14:58:04.077Z,5.71
2018-11-26T15:00:32.314Z,5.63
2018-11-26T15:03:00.524Z,5.72
2018-11-26T15:05:28.716Z,5.71
2018-11-26T15:07:56.887Z,5.74
2018-11-26T15:10:25.551Z,5.60
2018-11-26T15:12:53.772Z,5.68
2018-11-26T15:15:25.003Z,5.75
2018-11-26T15:17:53.200Z,5.82
2018-11-26T15:20:25.458Z,5.77
2018-11-26T15:22:55.935Z,5.78
2018-11-26T15:25:26.731Z,5.79
2018-11-26T15:27:57.965Z,5.78
2018-11-26T15:30:26.213Z,5.77
2018-11-26T15:32:56.084Z,5.84
2018-11-26T15:35:24.509Z,5.84
2018-11-26T15:37:52.814Z,5.86
2018-11-26T15:40:21.744Z,5.76
2018-11-26T15:42:49.982Z,5.62
2018-11-26T15:45:22.873Z,5.73
2018-11-26T15:47:52.262Z,5.78
2018-11-26T15:50:20.865Z,5.64
2018-11-26T15:52:48.759Z,5.81
2018-11-26T15:55:18.501Z,5.53
2018-11-26T15:57:46.839Z,5.74
2018-11-26T16:00:16.561Z,5.73
2018-11-26T16:02:44.962Z,5.87
2018-11-26T16:05:19.024Z,5.75
2018-11-26T16:07:48.117Z,5.75
2018-11-26T16:10:16.355Z,5.74
2018-11-26T16:12:46.345Z,5.73
2018-11-26T16:15:18.456Z,5.72
2018-11-26T16:17:46.705Z,5.72
2018-11-26T16:20:17.947Z,5.71
2018-11-26T16:22:46.186Z,5.74
2018-11-26T16:25:16.468Z,5.67
2018-11-26T16:27:44.857Z,5.71
2018-11-26T16:30:14.698Z,5.75
2018-11-26T16:32:44.933Z,5.71
2018-11-26T16:35:18.914Z,5.79
2018-11-26T16:37:47.198Z,5.83
2018-11-26T16:40:16.537Z,5.66
2018-11-26T16:42:44.808Z,5.74
2018-11-26T16:45:17.508Z,5.72
2018-11-26T16:47:48.367Z,5.73
2018-11-26T16:50:17.967Z,5.64
2018-11-26T16:52:46.218Z,5.57
2018-11-26T16:55:15.587Z,5.53
2018-11-26T16:57:43.856Z,5.27
2018-11-26T17:00:19.658Z,5.44
2018-11-26T17:02:49.500Z,5.45
2018-11-26T17:05:26.851Z,5.34
2018-11-26T17:07:55.062Z,5.36
2018-11-26T17:10:23.240Z,5.43
2018-11-26T17:12:51.700Z,5.35
2018-11-26T17:15:19.880Z,5.38
2018-11-26T17:17:48.074Z,5.42
2018-11-26T17:20:17.024Z,5.43
2018-11-26T17:22:45.284Z,5.40
2018-11-26T17:25:14.922Z,5.24
2018-11-26T17:27:43.884Z,5.20
2018-11-26T17:30:18.724Z,5.28
2018-11-26T17:32:49.720Z,5.20
2018-11-26T17:35:18.038Z,5.16
2018-11-26T17:37:46.250Z,4.96
2018-11-26T17:40:23.793Z,4.90
2018-11-26T17:42:52.597Z,4.84
2018-11-26T17:45:21.605Z,4.91
2018-11-26T17:47:51.593Z,5.01
2018-11-26T17:50:28.919Z,5.14
2018-11-26T17:52:57.277Z,5.22
2018-11-26T17:55:25.561Z,5.24
2018-11-26T17:57:53.999Z,5.06
2018-11-26T18:00:34.242Z,4.95
2018-11-26T18:03:02.475Z,5.19
2018-11-26T18:05:31.344Z,5.09
2018-11-26T18:08:08.867Z,5.13
2018-11-26T18:10:37.229Z,5.10
2018-11-26T18:13:05.923Z,5.05
2018-11-26T18:15:34.222Z,5.04
2018-11-26T18:18:02.419Z,5.05
2018-11-26T18:20:30.780Z,4.96
2018-11-26T18:22:58.977Z,4.94
2018-11-26T18:25:27.187Z,4.88
2018-11-26T18:28:02.197Z,4.94
2018-11-26T18:30:35.496Z,4.85
2018-11-26T18:33:04.063Z,4.86
2018-11-26T18:35:32.327Z,4.73
2018-11-26T18:38:00.600Z,4.69
2018-11-26T18:40:29.458Z,4.73
2018-11-26T18:42:57.838Z,4.78
2018-11-26T18:45:26.043Z,4.83
2018-11-26T18:47:54.300Z,4.77
2018-11-26T18:50:22.543Z,4.74
2018-11-26T18:52:51.292Z,4.72
2018-11-26T18:55:19.997Z,4.71
2018-11-26T18:57:48.218Z,4.76
2018-11-26T19:00:24.495Z,4.91
2018-11-26T19:02:53.686Z,4.80
2018-11-26T19:05:21.994Z,4.90
2018-11-26T19:07:51.165Z,4.84
2018-11-26T19:10:22.004Z,4.68
2018-11-26T19:13:25.980Z,4.68
2018-11-26T19:16:05.861Z,4.74
2018-11-26T19:18:34.106Z,4.60
2018-11-26T19:21:02.379Z,4.50
2018-11-26T19:23:30.631Z,4.39
2018-11-26T19:25:58.840Z,4.52
2018-11-26T19:28:27.072Z,4.58
2018-11-26T19:30:55.352Z,4.57
2018-11-26T19:33:23.562Z,4.60
2018-11-26T19:35:51.802Z,4.63
2018-11-26T19:38:20.046Z,4.52
2018-11-26T19:40:48.267Z,4.51
2018-11-26T19:43:16.529Z,4.62
2018-11-26T19:45:44.816Z,4.60
2018-11-26T19:48:13.019Z,4.64
2018-11-26T19:50:41.217Z,4.58
2018-11-26T19:53:11.234Z,4.61
2018-11-26T19:55:41.187Z,4.55
2018-11-26T19:58:09.988Z,4.63
2018-11-26T20:00:38.939Z,4.66
2018-11-26T20:03:22.411Z,4.69
2018-11-26T20:06:05.190Z,4.64
2018-11-26T20:08:33.456Z,4.56
2018-11-26T20:11:01.708Z,4.47
2018-11-26T20:13:30.012Z,4.55
2018-11-26T20:15:58.496Z,4.54
2018-11-26T20:18:28.587Z,4.56
2018-11-26T20:20:55.024Z,4.58
2018-11-26T20:23:23.288Z,4.50
2018-11-26T20:25:52.242Z,4.53
2018-11-26T20:28:19.852Z,4.43
2018-11-26T20:30:48.708Z,4.44
2018-11-26T20:33:17.157Z,4.42
2018-11-26T20:35:46.571Z,4.34
2018-11-26T20:38:15.850Z,4.40
2018-11-26T20:40:44.101Z,4.27
2018-11-26T20:43:13.619Z,4.37
2018-11-26T20:45:44.203Z,4.49
2018-11-26T20:48:12.471Z,4.30
2018-11-26T20:50:45.531Z,4.28
2018-11-26T20:53:13.771Z,4.41
2018-11-26T20:55:42.615Z,4.31
2018-11-26T20:58:10.839Z,4.35
2018-11-26T21:00:40.177Z,4.46
2018-11-26T21:03:09.715Z,4.39
2018-11-26T21:05:38.771Z,4.46
2018-11-26T21:08:07.154Z,4.48
2018-11-26T21:10:35.889Z,4.38
2018-11-26T21:13:04.272Z,4.35
2018-11-26T21:15:32.556Z,4.38
2018-11-26T21:18:04.641Z,4.29
2018-11-26T21:20:38.446Z,4.24
2018-11-26T21:23:12.152Z,4.34
2018-11-26T21:25:40.562Z,4.20
2018-11-26T21:28:09.317Z,4.19
2018-11-26T21:30:37.548Z,4.22
2018-11-26T21:33:06.177Z,4.40
2018-11-26T21:35:34.473Z,4.30
2018-11-26T21:38:02.806Z,4.33
2018-11-26T21:40:31.080Z,4.26
2018-11-26T21:43:00.385Z,4.28
2018-11-26T21:45:32.448Z,4.28
2018-11-26T21:48:00.674Z,4.35
2018-11-26T21:50:28.904Z,4.36
2018-11-26T21:52:57.205Z,4.34
2018-11-26T21:55:25.435Z,4.29
2018-11-26T21:57:53.666Z,4.20
2018-11-26T22:00:28.849Z,4.25
2018-11-26T22:02:57.572Z,4.13
2018-11-26T22:05:26.882Z,4.08
2018-11-26T22:07:55.061Z,4.09
2018-11-26T22:10:24.200Z,4.08
2018-11-26T22:12:54.606Z,4.04
2018-11-26T22:15:23.086Z,3.95
2018-11-26T22:17:51.377Z,4.00
2018-11-26T22:20:22.691Z,4.08
2018-11-26T22:22:50.966Z,4.16
2018-11-26T22:25:19.339Z,4.12
2018-11-26T22:27:47.687Z,4.06
2018-11-26T22:30:21.560Z,4.20
2018-11-26T22:32:49.862Z,4.21
2018-11-26T22:35:18.174Z,4.22
2018-11-26T22:37:46.451Z,4.10
2018-11-26T22:40:21.608Z,4.10
2018-11-26T22:42:50.214Z,4.14
2018-11-26T22:45:23.219Z,4.02
2018-11-26T22:47:58.441Z,4.12
2018-11-26T22:50:26.668Z,4.17
2018-11-26T22:52:54.899Z,4.03
2018-11-26T22:55:23.164Z,3.98
2018-11-26T22:57:51.518Z,4.00
2018-11-26T23:00:34.746Z,3.91
2018-11-26T23:03:03.120Z,3.86
2018-11-26T23:05:31.371Z,3.93
2018-11-26T23:07:59.765Z,4.07
2018-11-26T23:10:27.979Z,3.97
2018-11-26T23:12:56.399Z,4.07
2018-11-26T23:15:24.618Z,3.98
2018-11-26T23:17:52.857Z,4.02
2018-11-26T23:20:21.103Z,4.10
2018-11-26T23:22:49.510Z,4.11
2018-11-26T23:25:19.129Z,3.98
2018-11-26T23:27:47.376Z,4.07
2018-11-26T23:30:22.575Z,3.96
2018-11-26T23:32:55.039Z,4.06
2018-11-26T23:35:23.420Z,3.94
2018-11-26T23:37:51.873Z,3.99
2018-11-26T23:40:20.075Z,4.01
2018-11-26T23:42:48.569Z,4.04
2018-11-26T23:45:26.354Z,4.01
2018-11-26T23:47:54.913Z,4.07
2018-11-26T23:50:23.177Z,4.04
2018-11-26T23:52:51.489Z,4.03
2018-11-26T23:55:23.266Z,4.00
2018-11-26T23:57:51.661Z,4.04
